RSW weather

Southwest Florida International Airport
Fort Myers, Florida, United States

Public forecast

Using degrees Fahrenheit for public forecast. Weather courtesy of forecast.io.

Current aviation weather report (METAR) for Southwest Florida International Airport

Retrieved 2019/10/19 08:10 UTC (0 seconds ago):

KRSW 190810Z 14007KT 3SM +RA BR SCT011 BKN030 OVC110 26/24 A2981 RMK AO2 LTG DSNT N-SE TSE0754 P0014 T02560244

Aviation forecast (TAF) for Southwest Florida International Airport

Retrieved 2019/10/19 06:22 UTC (2 hours ago):

TAF KRSW 190520Z 1906/2006 13007KT P6SM FEW025 SCT050 OVC120 FM190800 16010G18KT 6SM -RA VCTS SCT025CB BKN050 OVC100 TEMPO 1908/1912 VRB15G25KT 2SM +TSRA BKN025CB FM191500 18013G23KT P6SM -RA VCTS SCT025CB OVC040 FM192000 21013G23KT P6SM -RA VCTS SCT025CB OVC050 FM200200 20006KT P6SM SCT025 OVC050